sim
Sign-in with your pilot id or email,
or register
Callsign
Passwort

Schedule Details

Flight Number: DLH1683
Departure: Budapest Ferenc Liszt International Airport (LHBP) at 05:15
Arrival: Munich Airport (EDDM) at 06:30
Route: Lufthansa Passenger Schedule. Enter filed route here before submitting Pirep.

Weather Information
Getting current METAR information for LHBP 210330Z 03002KT CAVOK 10/08 Q1019 NOSIG
Getting current METAR information for EDDM 210350Z VRB01KT CAVOK 07/07 Q1016 NOSIG

Schedule Frequency

Route Map